Terminal Aerodrome Forecast
Issued by NWS

Home | Current Version | Previous Version | Text Only | Print | Product List | Glossary On
Versions: 1 2 3 4 5 6 7 8 9 10 11 12 13 14
416
FTUS46 KEKA 052333
TAFUKI
TAF
KUKI 052333Z 0600/0624 33007KT P6SM SKC
     FM060400 00000KT P6SM SCT050
     FM061500 00000KT P6SM -RA SCT020 BKN050
     FM061900 34005KT P6SM FEW050=

USA.gov is the U.S. government's official web portal to all federal, state and local government web resources and services.